Time;durP1;ratioP1;P1;durP2;ratioP2;P2;SDS_P1;SDS_P2;PMS_P1;PMS_P2;Temp;Humidity;BMP_temperature;BMP_pressure;BME280_temperature;BME280_humidity;BME280_pressure;Samples;Min_cycle;Max_cycle;Signal;HPM_P1;HPM_P2
2023/03/07 00:01:09;;;;;;;7.72;4.43;;;;;;;3.95;100.00;99819.34;5069580;28;20416;-71
2023/03/07 00:03:35;;;;;;;8.45;3.58;;;;;;;3.95;100.00;99825.44;5069364;28;20029;-71
2023/03/07 00:06:06;;;;;;;8.32;4.03;;;;;;;3.93;100.00;99824.00;5089093;28;20030;-71
2023/03/07 00:08:32;;;;;;;9.67;4.10;;;;;;;3.87;100.00;99824.69;5088957;28;20059;-71
2023/03/07 00:11:02;;;;;;;6.57;3.13;;;;;;;3.81;100.00;99820.13;5089217;28;20039;-71
2023/03/07 00:13:30;;;;;;;6.25;2.78;;;;;;;3.71;100.00;99817.75;5089111;28;20559;-71
2023/03/07 00:16:03;;;;;;;8.30;2.95;;;;;;;3.68;100.00;99816.28;5087847;28;20487;-71
2023/03/07 00:18:29;;;;;;;7.32;3.20;;;;;;;3.63;100.00;99813.34;5089070;28;20016;-71
2023/03/07 00:20:59;;;;;;;4.85;2.58;;;;;;;3.60;100.00;99818.97;5088972;28;20032;-67
2023/03/07 00:23:25;;;;;;;7.15;3.30;;;;;;;3.57;100.00;99807.97;5088999;28;20533;-68
2023/03/07 00:26:01;;;;;;;4.55;2.40;;;;;;;3.55;100.00;99815.25;5089026;28;20051;-65
2023/03/07 00:28:27;;;;;;;5.07;2.67;;;;;;;3.52;100.00;99816.41;5088944;28;20024;-66
2023/03/07 00:30:53;;;;;;;5.68;2.42;;;;;;;3.38;100.00;99802.19;5088933;28;20149;-66
2023/03/07 00:33:18;;;;;;;4.60;2.60;;;;;;;3.46;100.00;99811.84;5088950;28;20039;-65
2023/03/07 00:35:44;;;;;;;4.90;2.63;;;;;;;3.40;100.00;99805.44;5088746;28;20073;-66
2023/03/07 00:38:09;;;;;;;4.75;2.25;;;;;;;3.39;100.00;99811.72;5088813;28;20435;-65
2023/03/07 00:40:34;;;;;;;4.18;2.22;;;;;;;3.38;100.00;99807.47;5088752;28;20155;-67
2023/03/07 00:43:00;;;;;;;3.75;2.08;;;;;;;3.37;100.00;99811.06;5088898;28;20028;-68
2023/03/07 00:45:25;;;;;;;2.92;1.50;;;;;;;3.35;100.00;99806.97;5088719;28;20035;-67
2023/03/07 00:47:51;;;;;;;3.35;1.58;;;;;;;3.33;100.00;99812.44;5088648;28;20119;-67
2023/03/07 00:50:16;;;;;;;3.50;1.80;;;;;;;3.26;100.00;99799.13;5088725;28;20066;-67
2023/03/07 00:52:42;;;;;;;4.55;1.70;;;;;;;3.26;100.00;99803.59;5088695;28;20060;-67
2023/03/07 00:55:07;;;;;;;3.08;2.15;;;;;;;3.19;100.00;99798.19;5088765;28;20067;-67
2023/03/07 00:57:33;;;;;;;2.65;1.50;;;;;;;3.15;100.00;99793.44;5088886;28;20028;-67
2023/03/07 00:59:58;;;;;;;2.47;1.42;;;;;;;3.11;100.00;99792.16;5088771;28;20032;-67
2023/03/07 01:02:24;;;;;;;2.25;1.70;;;;;;;2.99;100.00;99792.56;5088574;28;20085;-67
2023/03/07 01:04:49;;;;;;;1.80;1.10;;;;;;;2.99;100.00;99794.38;5088494;28;20024;-67
2023/03/07 01:07:14;;;;;;;1.92;1.00;;;;;;;2.95;100.00;99793.06;5088618;28;20032;-67
2023/03/07 01:09:40;;;;;;;2.60;1.42;;;;;;;2.90;100.00;99798.84;5088796;28;20043;-67
2023/03/07 01:12:06;;;;;;;2.70;1.20;;;;;;;2.90;100.00;99790.94;5088533;28;20064;-67
2023/03/07 01:14:32;;;;;;;2.47;1.17;;;;;;;2.90;100.00;99798.03;5091298;28;20506;-67
2023/03/07 01:16:57;;;;;;;3.22;1.60;;;;;;;2.84;100.00;99789.00;5092121;28;20391;-67
2023/03/07 01:19:23;;;;;;;3.80;1.88;;;;;;;2.90;100.00;99780.41;5092518;28;20031;-67
2023/03/07 01:21:49;;;;;;;1.13;1.02;;;;;;;2.99;100.00;99789.09;5092083;28;20394;-68
2023/03/07 01:24:15;;;;;;;1.77;0.90;;;;;;;3.01;100.00;99785.31;5092210;28;20039;-67
2023/03/07 01:26:40;;;;;;;3.38;1.52;;;;;;;3.04;100.00;99779.69;5092156;28;20038;-67
2023/03/07 01:29:06;;;;;;;2.42;1.20;;;;;;;3.05;100.00;99775.22;5092203;28;20123;-67
2023/03/07 01:31:32;;;;;;;3.00;1.50;;;;;;;2.98;100.00;99758.47;5092022;28;20097;-67
2023/03/07 01:33:58;;;;;;;3.03;1.60;;;;;;;3.04;100.00;99766.50;5091980;28;20370;-67
2023/03/07 01:36:29;;;;;;;2.67;1.73;;;;;;;3.06;100.00;99769.78;5091956;28;20035;-67
2023/03/07 01:39:05;;;;;;;3.00;1.80;;;;;;;3.08;100.00;99765.16;5091980;28;20023;-67
2023/03/07 01:41:31;;;;;;;3.63;1.70;;;;;;;3.11;100.00;99764.00;5091892;28;20028;-67
2023/03/07 01:44:01;;;;;;;3.92;2.42;;;;;;;3.10;100.00;99758.91;5091777;28;20078;-67
2023/03/07 01:46:36;;;;;;;3.85;1.85;;;;;;;3.10;100.00;99759.72;5091619;28;20039;-67
2023/03/07 01:49:21;;;;;;;3.53;1.90;;;;;;;3.08;100.00;99746.72;5091868;28;20016;-67
2023/03/07 01:52:06;;;;;;;3.08;1.80;;;;;;;3.16;100.00;99753.75;5091548;28;20055;-67
2023/03/07 01:54:37;;;;;;;3.75;2.15;;;;;;;3.13;100.00;99742.75;5091586;28;20024;-67
2023/03/07 01:57:03;;;;;;;3.60;2.03;;;;;;;3.15;100.00;99744.22;5091588;28;20490;-67
2023/03/07 01:59:32;;;;;;;5.20;2.50;;;;;;;3.17;100.00;99749.28;5091460;28;20016;-67
2023/03/07 02:02:03;;;;;;;3.63;2.25;;;;;;;3.20;100.00;99743.69;5091347;28;20059;-67
2023/03/07 02:04:38;;;;;;;4.30;2.30;;;;;;;3.24;100.00;99744.97;5091426;28;20577;-67
2023/03/07 02:07:05;;;;;;;6.90;2.83;;;;;;;3.27;100.00;99740.19;5091365;28;20073;-67
2023/03/07 02:09:32;;;;;;;5.55;3.08;;;;;;;3.32;100.00;99742.25;5091259;28;20024;-67
2023/03/07 02:12:00;;;;;;;5.88;2.90;;;;;;;3.34;100.00;99735.00;5091349;28;20042;-67
2023/03/07 02:14:26;;;;;;;8.02;3.28;;;;;;;3.37;100.00;99729.38;5091237;28;20036;-67
2023/03/07 02:16:52;;;;;;;5.70;2.95;;;;;;;3.39;100.00;99723.94;5091169;28;20036;-67
2023/03/07 02:19:20;;;;;;;7.68;4.13;;;;;;;3.42;100.00;99724.41;5091127;28;20028;-67
2023/03/07 02:21:59;;;;;;;6.57;3.03;;;;;;;3.42;100.00;99721.75;5091000;28;20098;-67
2023/03/07 02:24:38;;;;;;;7.72;3.35;;;;;;;3.46;100.00;99728.31;5090702;28;20035;-67
2023/03/07 02:27:04;;;;;;;8.38;3.97;;;;;;;3.45;100.00;99721.41;5090998;28;20032;-67
2023/03/07 02:29:30;;;;;;;8.68;3.72;;;;;;;3.46;100.00;99711.69;5090744;28;20035;-67
2023/03/07 02:31:55;;;;;;;9.80;3.88;;;;;;;3.46;100.00;99712.50;5090870;28;20032;-67
2023/03/07 02:34:29;;;;;;;7.78;3.67;;;;;;;3.45;100.00;99708.22;5089414;28;20024;-67
2023/03/07 02:37:05;;;;;;;7.82;3.90;;;;;;;3.49;100.00;99713.97;5090758;28;20449;-67
2023/03/07 02:39:31;;;;;;;11.20;4.60;;;;;;;3.51;100.00;99706.69;5090782;28;20142;-67
2023/03/07 02:42:05;;;;;;;11.38;3.83;;;;;;;3.50;100.00;99703.22;5090716;28;20530;-67
2023/03/07 02:44:31;;;;;;;8.77;3.97;;;;;;;3.49;100.00;99701.59;5090768;28;20043;-67
2023/03/07 02:46:56;;;;;;;7.72;4.25;;;;;;;3.50;100.00;99703.22;5090554;28;20028;-67
2023/03/07 02:49:22;;;;;;;9.40;4.00;;;;;;;3.50;100.00;99699.78;5089111;28;20070;-67
2023/03/07 02:51:47;;;;;;;7.47;4.10;;;;;;;3.51;100.00;99706.69;5090372;28;20048;-67
2023/03/07 02:54:12;;;;;;;8.77;3.80;;;;;;;3.48;100.00;99704.41;5090536;28;20035;-67
2023/03/07 02:56:38;;;;;;;11.07;4.35;;;;;;;3.48;100.00;99702.63;5090432;28;20078;-67
2023/03/07 02:59:03;;;;;;;9.15;3.95;;;;;;;3.47;100.00;99700.97;5090337;28;20020;-67
2023/03/07 03:01:28;;;;;;;6.38;3.58;;;;;;;3.47;100.00;99697.50;5070864;28;20024;-67
2023/03/07 03:03:54;;;;;;;8.10;3.58;;;;;;;3.46;100.00;99693.25;5073248;28;20024;-67
2023/03/07 03:06:20;;;;;;;7.93;3.60;;;;;;;3.47;100.00;99689.59;5090345;28;20036;-67
2023/03/07 03:08:45;;;;;;;8.55;3.90;;;;;;;3.45;100.00;99702.94;5090231;28;20357;-67
2023/03/07 03:11:11;;;;;;;8.82;3.72;;;;;;;3.47;100.00;99702.78;5070667;28;20044;-67
2023/03/07 03:13:36;;;;;;;6.38;3.30;;;;;;;3.48;100.00;99696.50;5070673;28;20032;-67
2023/03/07 03:16:02;;;;;;;8.82;4.53;;;;;;;3.46;100.00;99695.88;5070464;28;20032;-67
2023/03/07 03:18:29;;;;;;;7.38;2.55;;;;;;;3.44;100.00;99695.25;5070433;28;20025;-67
2023/03/07 03:20:54;;;;;;;7.63;3.45;;;;;;;3.45;100.00;99691.59;5070504;28;20032;-67
2023/03/07 03:23:20;;;;;;;6.53;3.30;;;;;;;3.41;100.00;99688.50;5089451;28;20020;-67
2023/03/07 03:25:45;;;;;;;8.82;3.28;;;;;;;3.42;100.00;99686.69;5089831;28;20027;-67
2023/03/07 03:28:12;;;;;;;7.03;3.35;;;;;;;3.41;100.00;99688.50;5089760;28;20364;-68
2023/03/07 03:30:39;;;;;;;9.48;3.75;;;;;;;3.42;100.00;99684.03;5089776;28;20099;-67
2023/03/07 03:33:04;;;;;;;8.63;2.97;;;;;;;3.42;100.00;99684.84;5088354;28;20027;-67
2023/03/07 03:35:29;;;;;;;9.27;3.78;;;;;;;3.42;100.00;99686.69;5088336;28;20036;-67
2023/03/07 03:37:55;;;;;;;7.68;3.30;;;;;;;3.39;100.00;99682.59;5089391;28;20053;-67
2023/03/07 03:40:20;;;;;;;9.10;3.75;;;;;;;3.36;100.00;99676.88;5089568;28;20129;-67
2023/03/07 03:42:46;;;;;;;9.40;4.00;;;;;;;3.38;100.00;99678.31;5089773;28;20036;-71
2023/03/07 03:45:13;;;;;;;8.68;3.58;;;;;;;3.38;100.00;99675.69;5089455;28;20535;-71
2023/03/07 03:47:39;;;;;;;5.32;2.60;;;;;;;3.37;100.00;99667.94;5089454;28;20081;-71
2023/03/07 03:50:05;;;;;;;9.80;3.95;;;;;;;3.37;100.00;99668.75;5089575;28;20028;-71
2023/03/07 03:52:30;;;;;;;6.40;3.53;;;;;;;3.37;100.00;99667.94;5089222;28;20101;-71
2023/03/07 03:54:56;;;;;;;7.28;3.08;;;;;;;3.38;100.00;99662.50;5089412;28;20566;-71
2023/03/07 03:57:21;;;;;;;5.18;2.78;;;;;;;3.37;100.00;99666.13;5089409;28;20410;-71
2023/03/07 03:59:46;;;;;;;6.65;3.30;;;;;;;3.38;100.00;99665.16;5089314;28;20547;-71
2023/03/07 04:02:12;;;;;;;7.10;3.10;;;;;;;3.37;100.00;99660.84;5089355;28;20027;-70
2023/03/07 04:04:38;;;;;;;6.82;3.22;;;;;;;3.36;100.00;99661.88;5089343;28;20382;-70
2023/03/07 04:07:03;;;;;;;8.18;3.92;;;;;;;3.35;100.00;99644.41;5089183;28;20086;-70
2023/03/07 04:09:32;;;;;;;6.82;2.95;;;;;;;3.34;100.00;99647.22;5089065;28;20436;-70
2023/03/07 04:11:57;;;;;;;9.25;3.88;;;;;;;3.33;100.00;99642.94;5089197;28;20040;-70
2023/03/07 04:14:22;;;;;;;6.85;3.30;;;;;;;3.31;100.00;99637.88;5089057;28;20444;-70
2023/03/07 04:16:48;;;;;;;9.30;3.15;;;;;;;3.29;100.00;99639.84;5089330;28;20028;-70
2023/03/07 04:19:13;;;;;;;8.02;3.20;;;;;;;3.27;100.00;99634.78;5089022;28;20028;-70
2023/03/07 04:21:39;;;;;;;5.53;3.47;;;;;;;3.27;100.00;99626.03;5088954;28;20031;-70
2023/03/07 04:24:07;;;;;;;7.35;3.38;;;;;;;3.24;100.00;99624.56;5089076;28;20020;-70
2023/03/07 04:26:33;;;;;;;5.30;2.67;;;;;;;3.25;100.00;99617.50;5088979;28;20035;-70
2023/03/07 04:28:58;;;;;;;6.53;4.03;;;;;;;3.27;100.00;99620.75;5088878;28;20038;-70
2023/03/07 04:31:26;;;;;;;5.93;3.20;;;;;;;3.25;100.00;99615.69;5089092;28;20119;-70
2023/03/07 04:33:53;;;;;;;4.65;3.17;;;;;;;3.24;100.00;99611.41;5089178;28;20739;-70
2023/03/07 04:36:19;;;;;;;6.78;3.13;;;;;;;3.23;100.00;99617.69;5087707;28;20390;-70
2023/03/07 04:38:46;;;;;;;5.30;2.58;;;;;;;3.24;100.00;99610.59;5088890;28;20029;-70
2023/03/07 04:41:14;;;;;;;4.25;2.50;;;;;;;3.23;100.00;99611.59;5088727;28;20028;-71
2023/03/07 04:43:39;;;;;;;4.43;2.25;;;;;;;3.21;100.00;99598.59;5088736;28;20111;-71
2023/03/07 04:46:07;;;;;;;8.32;3.30;;;;;;;3.22;100.00;99605.53;5089048;28;20130;-71
2023/03/07 04:48:33;;;;;;;5.28;2.40;;;;;;;3.22;100.00;99604.69;5090304;28;20028;-71
2023/03/07 04:50:58;;;;;;;6.15;2.72;;;;;;;3.24;100.00;99606.13;5092739;28;20093;-70
2023/03/07 04:53:24;;;;;;;5.65;2.53;;;;;;;3.20;100.00;99594.34;5092684;28;20403;-70
2023/03/07 04:55:49;;;;;;;4.88;2.60;;;;;;;3.24;100.00;99605.31;5093366;28;20055;-70
2023/03/07 04:58:15;;;;;;;8.15;2.78;;;;;;;3.21;100.00;99592.50;5092793;28;20066;-70
2023/03/07 05:00:42;;;;;;;6.05;2.70;;;;;;;3.25;100.00;99597.25;5092683;28;20032;-70
2023/03/07 05:03:09;;;;;;;4.68;2.55;;;;;;;3.24;100.00;99598.22;5092641;28;20395;-70
2023/03/07 05:05:34;;;;;;;7.00;3.00;;;;;;;3.24;100.00;99592.97;5092865;28;20046;-71
2023/03/07 05:08:00;;;;;;;4.82;2.42;;;;;;;3.25;100.00;99585.91;5092420;28;20539;-70
2023/03/07 05:10:25;;;;;;;6.90;4.32;;;;;;;3.23;100.00;99582.63;5092448;28;20034;-70
2023/03/07 05:12:51;;;;;;;6.13;2.67;;;;;;;3.21;100.00;99580.16;5092488;28;20081;-70
2023/03/07 05:15:16;;;;;;;5.50;2.40;;;;;;;3.25;100.00;99586.72;5092571;28;20063;-70
2023/03/07 05:17:41;;;;;;;5.78;3.08;;;;;;;3.21;100.00;99580.16;5092473;28;20035;-70
2023/03/07 05:20:09;;;;;;;6.47;3.47;;;;;;;3.22;100.00;99586.22;5092292;28;20038;-70
2023/03/07 05:22:35;;;;;;;8.93;2.70;;;;;;;3.26;100.00;99584.88;5091045;28;20024;-70
2023/03/07 05:25:00;;;;;;;7.60;3.47;;;;;;;3.23;100.00;99583.44;5092173;28;20387;-70
2023/03/07 05:27:26;;;;;;;6.70;2.78;;;;;;;3.23;100.00;99586.06;5092097;28;20043;-70
2023/03/07 05:29:51;;;;;;;5.97;2.40;;;;;;;3.23;100.00;99577.34;5092251;28;20062;-70
2023/03/07 05:32:16;;;;;;;4.70;2.25;;;;;;;3.23;100.00;99577.34;5092161;28;20418;-70
2023/03/07 05:34:43;;;;;;;5.70;3.08;;;;;;;3.17;100.00;99568.34;5091991;28;20031;-70
2023/03/07 05:37:09;;;;;;;5.80;2.60;;;;;;;3.24;100.00;99576.34;5091983;28;20103;-70
2023/03/07 05:39:34;;;;;;;6.43;3.72;;;;;;;3.22;100.00;99576.53;5092287;28;20127;-70
2023/03/07 05:41:59;;;;;;;5.60;2.83;;;;;;;3.22;100.00;99581.81;5092252;28;20052;-70
2023/03/07 05:44:25;;;;;;;5.55;3.20;;;;;;;3.21;100.00;99576.72;5091926;28;20066;-70
2023/03/07 05:46:50;;;;;;;10.45;3.58;;;;;;;3.21;100.00;99577.53;5092033;28;20039;-70
2023/03/07 05:49:16;;;;;;;6.60;3.28;;;;;;;3.21;100.00;99581.97;5091617;28;20119;-70
2023/03/07 05:51:41;;;;;;;9.02;3.92;;;;;;;3.19;100.00;99583.97;5091593;28;20089;-70
2023/03/07 05:54:06;;;;;;;9.52;3.50;;;;;;;3.19;100.00;99579.50;5090154;28;20490;-70
2023/03/07 05:56:32;;;;;;;12.10;3.83;;;;;;;3.20;100.00;99580.34;5091647;28;20059;-70
2023/03/07 05:58:57;;;;;;;9.98;3.25;;;;;;;3.18;100.00;99584.97;5091094;28;20055;-70
2023/03/07 06:01:22;;;;;;;8.95;3.92;;;;;;;3.18;100.00;99574.44;5090855;28;20024;-71
2023/03/07 06:03:48;;;;;;;9.13;3.30;;;;;;;3.17;100.00;99580.69;5091534;28;20444;-72
2023/03/07 06:06:13;;;;;;;9.73;4.50;;;;;;;3.14;100.00;99562.63;5078082;28;20391;-72
2023/03/07 06:08:38;;;;;;;10.45;4.90;;;;;;;3.17;100.00;99572.78;5073405;28;20059;-69
2023/03/07 06:11:04;;;;;;;7.10;3.13;;;;;;;3.13;100.00;99564.44;5073781;28;20055;-72
2023/03/07 06:13:30;;;;;;;6.13;3.45;;;;;;;3.13;100.00;99561.00;5074082;28;20158;-72
2023/03/07 06:15:55;;;;;;;9.82;3.50;;;;;;;3.11;100.00;99570.88;5075968;28;20463;-69
2023/03/07 06:18:22;;;;;;;10.38;4.32;;;;;;;3.11;100.00;99576.16;5075842;28;20119;-68
2023/03/07 06:20:59;;;;;;;6.75;3.22;;;;;;;3.13;100.00;99569.69;5074218;28;20038;-67
2023/03/07 06:23:26;;;;;;;7.72;3.17;;;;;;;3.14;100.00;99567.88;5073714;28;20169;-67
2023/03/07 06:25:52;;;;;;;8.68;3.05;;;;;;;3.16;100.00;99571.16;5075040;28;20024;-69
2023/03/07 06:28:17;;;;;;;9.30;2.95;;;;;;;3.15;100.00;99572.16;5073546;28;20032;-67
2023/03/07 06:30:42;;;;;;;4.72;2.53;;;;;;;3.14;100.00;99568.69;5074338;28;20036;-67
2023/03/07 06:33:08;;;;;;;8.00;3.88;;;;;;;3.15;100.00;99569.53;5073917;28;20400;-67
2023/03/07 06:35:33;;;;;;;5.93;2.70;;;;;;;3.15;100.00;99577.44;5073984;28;20589;-67
2023/03/07 06:37:59;;;;;;;8.55;3.58;;;;;;;3.15;100.00;99583.53;5074340;28;20039;-67
2023/03/07 06:40:25;;;;;;;6.07;3.50;;;;;;;3.12;100.00;99581.25;5074023;28;20039;-67
2023/03/07 06:42:51;;;;;;;7.82;3.45;;;;;;;3.08;100.00;99587.84;5073775;28;21206;-66
2023/03/07 06:45:17;;;;;;;6.97;3.45;;;;;;;3.02;100.00;99584.13;5071155;28;20063;-67
2023/03/07 06:47:42;;;;;;;6.50;2.90;;;;;;;2.97;100.00;99588.31;5073083;28;20646;-67
2023/03/07 06:50:08;;;;;;;9.20;3.90;;;;;;;2.91;100.00;99581.94;5074821;28;20033;-67
2023/03/07 06:52:33;;;;;;;7.32;3.15;;;;;;;2.87;100.00;99583.28;5074313;28;20043;-67
2023/03/07 06:54:59;;;;;;;8.13;3.33;;;;;;;2.79;100.00;99573.63;5075183;28;20476;-67
2023/03/07 06:57:25;;;;;;;8.00;3.22;;;;;;;2.79;100.00;99591.25;5074208;28;20509;-67
2023/03/07 06:59:50;;;;;;;6.50;2.65;;;;;;;2.77;100.00;99578.25;5074485;28;20055;-67
2023/03/07 07:02:16;;;;;;;8.30;3.67;;;;;;;2.76;100.00;99575.81;5074776;28;20076;-67
2023/03/07 07:04:41;;;;;;;5.45;2.63;;;;;;;2.73;100.00;99573.53;5072101;28;20392;-67
2023/03/07 07:07:06;;;;;;;5.35;2.65;;;;;;;2.72;100.00;99583.22;5073609;28;20060;-66
2023/03/07 07:09:32;;;;;;;6.63;2.88;;;;;;;2.69;100.00;99595.94;5074080;28;20039;-66
2023/03/07 07:11:58;;;;;;;7.18;2.92;;;;;;;2.61;100.00;99597.63;5071993;28;20036;-65
2023/03/07 07:14:23;;;;;;;6.47;3.00;;;;;;;2.62;100.00;99603.72;5074093;28;20180;-66
2023/03/07 07:16:49;;;;;;;6.20;2.45;;;;;;;2.59;100.00;99596.16;5073753;28;20484;-66
2023/03/07 07:19:14;;;;;;;5.53;2.80;;;;;;;2.59;100.00;99602.28;5072051;28;20404;-65
2023/03/07 07:21:39;;;;;;;7.82;3.53;;;;;;;2.58;100.00;99607.69;5073366;28;20024;-65
2023/03/07 07:24:05;;;;;;;7.00;2.28;;;;;;;2.52;100.00;99601.31;5073471;28;21028;-65
2023/03/07 07:26:30;;;;;;;5.18;2.70;;;;;;;2.44;100.00;99604.00;5072031;28;20048;-66
2023/03/07 07:28:56;;;;;;;7.20;3.17;;;;;;;2.35;100.00;99597.97;5073432;28;20025;-65
2023/03/07 07:31:21;;;;;;;4.75;2.38;;;;;;;2.35;100.00;99602.41;5072593;28;20032;-66
2023/03/07 07:33:46;;;;;;;7.07;3.28;;;;;;;2.37;100.00;99593.34;5072734;28;20491;-66
2023/03/07 07:36:12;;;;;;;8.65;3.55;;;;;;;2.38;100.00;99604.69;5072563;28;20032;-66
2023/03/07 07:38:37;;;;;;;8.93;3.67;;;;;;;2.36;100.00;99604.88;5072980;28;20056;-66
2023/03/07 07:41:03;;;;;;;9.23;4.25;;;;;;;2.32;100.00;99614.09;5072805;28;20074;-66
2023/03/07 07:43:28;;;;;;;7.50;3.80;;;;;;;2.27;100.00;99624.31;5072555;28;20016;-66
2023/03/07 07:45:54;;;;;;;7.72;3.15;;;;;;;2.21;100.00;99627.66;5072940;28;20034;-65
2023/03/07 07:48:19;;;;;;;9.13;3.90;;;;;;;2.14;100.00;99630.16;5072073;28;20036;-66
2023/03/07 07:50:46;;;;;;;10.63;4.82;;;;;;;2.08;100.00;99643.19;5073339;28;21645;-66
2023/03/07 07:53:12;;;;;;;10.23;4.35;;;;;;;2.00;100.00;99646.66;5072611;28;20078;-68
2023/03/07 07:55:38;;;;;;;8.25;3.00;;;;;;;1.96;100.00;99654.09;5071487;28;20044;-65
2023/03/07 07:58:03;;;;;;;8.85;3.55;;;;;;;1.84;100.00;99652.81;5073239;28;20098;-66
2023/03/07 08:00:29;;;;;;;9.45;4.65;;;;;;;1.77;100.00;99661.53;5072904;28;20174;-65
2023/03/07 08:02:54;;;;;;;8.05;3.20;;;;;;;1.68;100.00;99668.63;5071197;28;20650;-64
2023/03/07 08:05:21;;;;;;;9.00;3.67;;;;;;;1.66;100.00;99671.41;5072202;28;20032;-66
2023/03/07 08:07:46;;;;;;;9.90;4.22;;;;;;;1.68;100.00;99663.38;5072097;28;20016;-66
2023/03/07 08:10:16;;;;;;;9.02;3.83;;;;;;;1.73;100.00;99669.75;5072621;28;20455;-67
2023/03/07 08:12:43;;;;;;;6.63;3.65;;;;;;;1.76;100.00;99671.22;5072876;28;20031;-66
2023/03/07 08:15:09;;;;;;;6.70;3.53;;;;;;;1.76;100.00;99671.22;5072186;28;20093;-66
2023/03/07 08:17:34;;;;;;;7.85;3.40;;;;;;;1.76;100.00;99673.88;5072017;28;20040;-65
2023/03/07 08:20:02;;;;;;;8.15;3.17;;;;;;;1.77;100.00;99675.50;5072494;28;20167;-65
2023/03/07 08:22:28;;;;;;;5.63;2.83;;;;;;;1.71;100.00;99682.25;5071585;28;20024;-65
2023/03/07 08:24:54;;;;;;;6.97;2.95;;;;;;;1.60;100.00;99674.72;5071452;28;20082;-67
2023/03/07 08:27:19;;;;;;;6.93;2.83;;;;;;;1.54;100.00;99673.56;5072894;28;20025;-71
2023/03/07 08:29:48;;;;;;;6.05;2.47;;;;;;;1.52;100.00;99680.81;5072278;28;20025;-70
2023/03/07 08:32:13;;;;;;;6.72;2.63;;;;;;;1.53;100.00;99677.19;5071330;28;20028;-74
2023/03/07 08:34:38;;;;;;;3.92;2.10;;;;;;;1.56;100.00;99681.28;5072123;28;20487;-72
2023/03/07 08:37:04;;;;;;;4.18;2.08;;;;;;;1.53;100.00;99684.25;5071961;28;20112;-72
2023/03/07 08:39:29;;;;;;;4.20;2.10;;;;;;;1.55;100.00;99687.53;5071551;28;20048;-67
2023/03/07 08:41:55;;;;;;;5.40;2.45;;;;;;;1.57;100.00;99689.97;5072904;28;20052;-66
2023/03/07 08:44:21;;;;;;;6.88;2.67;;;;;;;1.59;100.00;99685.38;5071698;28;20039;-66
2023/03/07 08:46:46;;;;;;;5.00;2.30;;;;;;;1.59;100.00;99691.47;5071766;28;20467;-66
2023/03/07 08:49:11;;;;;;;5.30;1.80;;;;;;;1.56;100.00;99686.53;5072886;28;20044;-66
2023/03/07 08:51:37;;;;;;;2.47;1.58;;;;;;;1.58;100.00;99673.25;5071762;28;20024;-66
2023/03/07 08:54:02;;;;;;;2.55;1.67;;;;;;;1.64;100.00;99681.25;5069804;28;20066;-65
2023/03/07 08:56:27;;;;;;;4.45;1.48;;;;;;;1.72;100.00;99670.72;5072332;28;20044;-65
2023/03/07 08:58:53;;;;;;;4.85;2.20;;;;;;;1.73;100.00;99667.13;5070224;28;20025;-65
2023/03/07 09:01:19;;;;;;;5.35;2.08;;;;;;;1.86;100.00;99677.13;5071970;28;20099;-65
2023/03/07 09:03:44;;;;;;;5.07;2.00;;;;;;;1.90;100.00;99675.78;5071339;28;20403;-66
2023/03/07 09:06:17;;;;;;;6.53;3.33;;;;;;;2.01;100.00;99671.94;5071928;28;20031;-66
2023/03/07 09:08:44;;;;;;;4.22;2.03;;;;;;;2.03;100.00;99671.78;5070227;28;20062;-66
2023/03/07 09:11:09;;;;;;;3.63;2.03;;;;;;;2.06;100.00;99676.72;5070568;28;20379;-67
2023/03/07 09:13:34;;;;;;;4.20;1.92;;;;;;;2.09;100.00;99676.38;5071364;28;20029;-66
2023/03/07 09:16:03;;;;;;;5.57;2.30;;;;;;;2.13;100.00;99682.94;5071123;28;20521;-66
2023/03/07 09:18:28;;;;;;;4.28;2.42;;;;;;;2.13;100.00;99688.19;5071059;28;20600;-66
2023/03/07 09:20:54;;;;;;;3.08;1.98;;;;;;;2.12;100.00;99684.75;5069584;28;20043;-66
2023/03/07 09:23:19;;;;;;;4.35;2.13;;;;;;;2.11;100.00;99671.75;5072182;28;20021;-65
2023/03/07 09:25:44;;;;;;;2.72;1.90;;;;;;;2.19;100.00;99676.97;5071769;28;20027;-65
2023/03/07 09:28:10;;;;;;;7.10;3.38;;;;;;;2.19;100.00;99671.72;5071932;28;20020;-67
2023/03/07 09:30:36;;;;;;;3.03;1.83;;;;;;;2.33;100.00;99691.22;5070184;28;20021;-66
2023/03/07 09:33:01;;;;;;;2.90;2.03;;;;;;;2.31;100.00;99695.84;5071439;28;20039;-65
2023/03/07 09:35:27;;;;;;;3.63;2.28;;;;;;;2.28;100.00;99690.91;5073246;28;20105;-65
2023/03/07 09:37:52;;;;;;;6.25;2.47;;;;;;;2.35;100.00;99697.94;5074485;28;20367;-65
2023/03/07 09:40:22;;;;;;;5.97;2.85;;;;;;;2.51;100.00;99702.31;5076061;28;20029;-67
2023/03/07 09:43:01;;;;;;;6.88;2.50;;;;;;;2.61;100.00;99697.66;5075402;28;20032;-66
2023/03/07 09:45:41;;;;;;;8.32;2.80;;;;;;;2.68;100.00;99697.78;5073612;28;20070;-66
2023/03/07 09:48:16;;;;;;;7.30;3.10;;;;;;;2.67;100.00;99700.56;5074604;28;20029;-67
2023/03/07 09:50:53;;;;;;;8.02;3.58;;;;;;;2.66;100.00;99697.13;5074858;28;20035;-68
2023/03/07 09:53:44;;;;;;;5.95;3.03;;;;;;;2.62;100.00;99701.94;5074798;28;20044;-67
2023/03/07 09:56:20;;;;;;;5.95;3.15;;;;;;;2.63;100.00;99700.94;5070959;28;20119;-66
2023/03/07 09:58:50;;;;;;;8.45;3.60;;;;;;;2.70;100.00;99689.69;5074713;28;20946;-67
2023/03/07 10:01:21;;;;;;;7.35;3.78;;;;;;;2.71;100.00;99692.16;5073709;28;20032;-66
2023/03/07 10:04:00;;;;;;;6.38;3.30;;;;;;;2.74;100.00;99696.25;5073940;28;20020;-67
2023/03/07 10:06:38;;;;;;;7.28;3.00;;;;;;;2.77;100.00;99695.91;5071713;28;20050;-67
2023/03/07 10:09:10;;;;;;;7.25;3.35;;;;;;;2.81;100.00;99694.56;5070680;28;20031;-66
2023/03/07 10:11:48;;;;;;;7.82;3.28;;;;;;;2.79;100.00;99696.56;5073887;28;20063;-67
2023/03/07 10:14:29;;;;;;;6.53;2.70;;;;;;;2.81;100.00;99694.56;5073747;28;20068;-67
2023/03/07 10:17:05;;;;;;;4.03;2.33;;;;;;;2.85;100.00;99690.59;5074405;28;20032;-67
2023/03/07 10:19:55;;;;;;;6.50;3.13;;;;;;;2.94;100.00;99689.53;5074433;28;20534;-67
2023/03/07 10:22:39;;;;;;;6.30;2.53;;;;;;;2.97;100.00;99691.81;5073310;28;20415;-67
2023/03/07 10:25:19;;;;;;;6.57;3.30;;;;;;;3.12;100.00;99691.03;5073047;28;20031;-67
2023/03/07 10:27:48;;;;;;;6.53;2.80;;;;;;;3.13;100.00;99695.34;5074079;28;21043;-68
2023/03/07 10:30:18;;;;;;;5.43;2.58;;;;;;;3.14;100.00;99692.50;5074480;28;20020;-68
2023/03/07 10:32:45;;;;;;;5.32;2.80;;;;;;;3.20;100.00;99689.19;5082498;28;20626;-66
2023/03/07 10:35:11;;;;;;;5.18;2.88;;;;;;;3.24;100.00;99698.34;5074013;28;20588;-67
2023/03/07 10:37:36;;;;;;;6.80;3.03;;;;;;;3.34;100.00;99692.84;5071553;28;20038;-67
2023/03/07 10:40:02;;;;;;;9.30;4.00;;;;;;;3.41;100.00;99695.59;5070680;28;20100;-67
2023/03/07 10:42:34;;;;;;;6.65;2.92;;;;;;;3.42;100.00;99694.59;5071666;28;20050;-67
2023/03/07 10:45:00;;;;;;;6.00;3.25;;;;;;;3.50;100.00;99694.50;5090937;28;20063;-67
2023/03/07 10:47:27;;;;;;;8.15;3.53;;;;;;;3.58;100.00;99699.69;5088681;28;20075;-67
2023/03/07 10:50:26;;;;;;;4.93;2.50;;;;;;;3.64;100.00;99696.38;5090403;28;20028;-67
2023/03/07 10:52:56;;;;;;;7.63;3.38;;;;;;;3.60;100.00;99695.06;5070059;28;20579;-67
2023/03/07 10:55:34;;;;;;;7.47;3.80;;;;;;;3.63;100.00;99692.06;5071016;28;20028;-67
2023/03/07 10:58:13;;;;;;;7.93;2.78;;;;;;;3.66;100.00;99690.91;5070938;28;20036;-67
2023/03/07 11:00:39;;;;;;;7.90;2.97;;;;;;;3.71;100.00;99689.34;5070788;28;20111;-67
2023/03/07 11:03:21;;;;;;;9.90;3.50;;;;;;;3.81;100.00;99688.28;5070839;28;20112;-67
2023/03/07 11:05:47;;;;;;;8.90;3.50;;;;;;;3.85;100.00;99695.66;5070730;28;20086;-67
2023/03/07 11:08:25;;;;;;;8.55;3.58;;;;;;;3.93;100.00;99692.91;5089817;28;20032;-67
2023/03/07 11:10:50;;;;;;;8.43;3.35;;;;;;;4.02;100.00;99693.63;5089936;28;20031;-67
2023/03/07 11:13:19;;;;;;;4.78;2.85;;;;;;;4.08;100.00;99689.44;5090076;28;20119;-67
2023/03/07 11:15:45;;;;;;;9.35;3.90;;;;;;;4.14;100.00;99688.72;5070958;28;20056;-67
2023/03/07 11:18:29;;;;;;;7.15;3.33;;;;;;;4.14;100.00;99676.34;5090029;28;20055;-67
2023/03/07 11:20:56;;;;;;;5.95;2.70;;;;;;;4.22;100.00;99693.06;5089838;28;20035;-67
2023/03/07 11:23:22;;;;;;;8.57;3.03;;;;;;;4.25;100.00;99695.38;5089717;28;20028;-67
2023/03/07 11:25:52;;;;;;;7.43;3.72;;;;;;;4.22;100.00;99693.91;5088477;28;20382;-67
2023/03/07 11:28:33;;;;;;;6.00;2.53;;;;;;;4.19;100.00;99694.25;5089774;28;20575;-67
2023/03/07 11:31:04;;;;;;;7.43;3.28;;;;;;;4.16;100.00;99689.34;5089773;28;20400;-67
2023/03/07 11:33:52;;;;;;;7.32;3.38;;;;;;;4.13;100.00;99692.34;5089957;28;20042;-67
2023/03/07 11:36:39;;;;;;;8.20;3.05;;;;;;;4.09;100.00;99693.75;5089698;28;20012;-67